Time;durP1;ratioP1;P1;durP2;ratioP2;P2;SDS_P1;SDS_P2;PMS_P1;PMS_P2;Temp;Humidity;BMP_temperature;BMP_pressure;BME280_temperature;BME280_humidity;BME280_pressure;Samples;Min_cycle;Max_cycle;Signal;HPM_P1;HPM_P2
2022/05/05 00:00:56;;;;;;;11.93;5.53;;;9.30;1.00;;;;;;5051553;28;20245;-61
2022/05/05 00:03:24;;;;;;;9.43;5.87;;;9.40;1.00;;;;;;5068681;28;20653;-62
2022/05/05 00:05:51;;;;;;;10.67;6.00;;;9.60;1.00;;;;;;5050153;28;20191;-59
2022/05/05 00:08:18;;;;;;;10.90;6.67;;;9.80;1.00;;;;;;5069484;28;20740;-59
2022/05/05 00:16:17;;;;;;;10.03;6.27;;;10.30;1.00;;;;;;5068511;28;20223;-60
2022/05/05 00:18:45;;;;;;;9.67;6.30;;;10.30;1.00;;;;;;5043601;28;21070;-59
2022/05/05 00:21:12;;;;;;;11.43;5.87;;;10.40;1.00;;;;;;5067479;28;20244;-59
2022/05/05 00:23:39;;;;;;;8.07;6.10;;;10.40;1.00;;;;;;5051443;28;20260;-59
2022/05/05 00:26:06;;;;;;;15.77;6.23;;;10.50;1.00;;;;;;5059059;28;20248;-60
2022/05/05 00:28:33;;;;;;;11.23;5.90;;;10.60;1.00;;;;;;5068253;28;20195;-59
2022/05/05 00:31:00;;;;;;;13.40;5.70;;;10.60;1.00;;;;;;5068402;28;20241;-59
2022/05/05 00:33:27;;;;;;;10.67;6.13;;;10.70;1.00;;;;;;5070651;28;20237;-58
2022/05/05 00:35:57;;;;;;;10.77;5.90;;;10.70;1.00;;;;;;5044373;28;20231;-59
2022/05/05 00:38:24;;;;;;;9.87;5.93;;;10.80;1.00;;;;;;5055883;28;20223;-60
2022/05/05 00:40:51;;;;;;;11.87;6.43;;;10.90;1.00;;;;;;5049339;28;20736;-59
2022/05/05 04:52:03;;;;;;;11.30;7.63;;;10.30;1.00;;;;;;5050208;28;20262;-62
2022/05/05 04:54:30;;;;;;;9.47;6.73;;;10.40;1.00;;;;;;5040809;28;20231;-59
2022/05/05 04:56:57;;;;;;;13.87;8.13;;;10.50;1.00;;;;;;5052908;28;20199;-60
2022/05/05 04:59:24;;;;;;;10.80;8.03;;;10.60;1.00;;;;;;5031660;28;20322;-60
2022/05/05 05:01:52;;;;;;;13.23;8.87;;;10.70;1.00;;;;;;5051787;28;20290;-60
2022/05/05 05:04:20;;;;;;;13.43;8.10;;;10.70;1.00;;;;;;5041216;28;20275;-60
2022/05/05 05:06:48;;;;;;;15.63;7.93;;;10.60;1.00;;;;;;5048902;28;20223;-60
2022/05/05 05:09:15;;;;;;;14.00;7.70;;;10.60;1.00;;;;;;5033814;28;20207;-59
2022/05/05 05:11:42;;;;;;;14.90;8.07;;;10.60;1.00;;;;;;5052527;28;20675;-61
2022/05/05 05:14:09;;;;;;;12.97;7.40;;;10.80;1.00;;;;;;5054371;28;20257;-60
2022/05/05 05:16:36;;;;;;;10.77;7.63;;;11.00;1.00;;;;;;5054062;28;20188;-60
2022/05/05 05:19:08;;;;;;;11.77;7.80;;;11.00;1.00;;;;;;5048487;28;20356;-59
2022/05/05 05:21:35;;;;;;;19.63;8.20;;;11.20;1.00;;;;;;5052268;28;20220;-59
2022/05/05 05:24:05;;;;;;;14.70;7.60;;;11.50;1.00;;;;;;5046975;28;21213;-59
2022/05/05 05:26:32;;;;;;;13.27;7.70;;;11.60;1.00;;;;;;5049299;28;21341;-60
2022/05/05 05:28:59;;;;;;;15.40;7.57;;;11.80;1.00;;;;;;5049369;28;20198;-59
2022/05/05 05:31:26;;;;;;;12.13;8.20;;;11.90;1.00;;;;;;5037880;28;20226;-59
2022/05/05 05:33:53;;;;;;;13.77;7.50;;;12.00;1.00;;;;;;5048478;28;20203;-58
2022/05/05 05:36:23;;;;;;;13.80;7.67;;;12.50;1.00;;;;;;5045770;28;20195;-58
2022/05/05 05:38:50;;;;;;;11.27;7.20;;;13.30;1.00;;;;;;5047412;28;20231;-60
2022/05/05 05:41:17;;;;;;;14.43;7.17;;;14.40;1.00;;;;;;5051968;28;20199;-60
2022/05/05 05:43:45;;;;;;;9.97;6.87;;;14.60;99.90;;;;;;5029903;28;20660;-61
2022/05/05 05:46:12;;;;;;;12.13;7.43;;;14.30;99.90;;;;;;5031127;28;20200;-59
2022/05/05 05:48:39;;;;;;;13.50;7.77;;;13.80;99.90;;;;;;5050161;28;20215;-59
2022/05/05 05:51:06;;;;;;;16.87;7.63;;;13.90;1.00;;;;;;5052428;28;20250;-60
2022/05/05 05:53:33;;;;;;;13.73;7.63;;;13.80;1.00;;;;;;5049561;28;20233;-60
2022/05/05 05:56:00;;;;;;;16.57;7.83;;;14.10;1.00;;;;;;5048169;28;20284;-60
2022/05/05 05:58:27;;;;;;;10.03;6.53;;;15.20;99.90;;;;;;5034730;28;20199;-60
2022/05/05 06:00:54;;;;;;;11.50;5.73;;;15.90;99.90;;;;;;5016694;28;20673;-60
2022/05/05 06:06:07;;;;;;;11.00;6.55;;;17.20;99.90;;;;;;5050868;28;20191;-59
2022/05/05 06:08:34;;;;;;;10.10;7.00;;;18.90;99.90;;;;;;5050314;28;20203;-59
2022/05/05 06:11:00;;;;;;;14.07;7.50;;;20.10;99.90;;;;;;5048725;28;20714;-60
2022/05/05 06:13:29;;;;;;;34.47;11.20;;;21.20;99.90;;;;;;5016085;28;20222;-60
2022/05/05 06:15:56;;;;;;;12.10;6.78;;;21.50;99.90;;;;;;5049822;28;20191;-60
2022/05/05 06:18:23;;;;;;;10.38;6.15;;;22.50;99.90;;;;;;5048785;28;20269;-59
2022/05/05 06:20:51;;;;;;;18.10;9.18;;;22.90;99.90;;;;;;5046105;28;20272;-59
2022/05/05 06:23:18;;;;;;;12.95;6.30;;;24.10;99.90;;;;;;5048805;28;20295;-59
2022/05/05 06:25:45;;;;;;;11.77;6.35;;;24.10;99.90;;;;;;5029702;28;20410;-59
2022/05/05 06:28:12;;;;;;;11.65;6.43;;;24.30;99.90;;;;;;5042571;28;20195;-60
2022/05/05 06:30:39;;;;;;;13.63;6.32;;;24.60;99.90;;;;;;5043997;28;20187;-58
2022/05/05 06:33:06;;;;;;;14.55;6.18;;;24.70;99.90;;;;;;5025750;28;20207;-59
2022/05/05 06:35:33;;;;;;;13.63;7.55;;;24.50;99.90;;;;;;5028243;28;20562;-60
2022/05/05 06:38:00;;;;;;;13.02;6.95;;;23.90;99.90;;;;;;5034597;28;20195;-59
2022/05/05 06:40:27;;;;;;;14.63;6.55;;;24.10;99.90;;;;;;5044954;28;20200;-59
2022/05/05 06:42:54;;;;;;;11.52;6.75;;;24.50;99.90;;;;;;5039991;28;20294;-59
2022/05/05 06:45:22;;;;;;;12.13;6.30;;;26.10;99.90;;;;;;5045001;28;20199;-59
2022/05/05 06:47:49;;;;;;;9.00;5.72;;;28.10;99.90;;;;;;5029437;28;20582;-61
2022/05/05 06:50:21;;;;;;;12.63;6.25;;;29.10;99.90;;;;;;5045476;28;20258;-59
2022/05/05 06:52:48;;;;;;;12.50;6.50;;;28.40;99.90;;;;;;5046912;28;20243;-59
2022/05/05 06:55:15;;;;;;;13.52;7.18;;;29.20;99.90;;;;;;5044004;28;20627;-60
2022/05/05 06:57:43;;;;;;;11.50;6.07;;;29.40;99.90;;;;;;5028618;28;20761;-59
2022/05/05 07:00:11;;;;;;;11.77;6.13;;;30.40;99.90;;;;;;5044238;28;20199;-59
2022/05/05 07:02:38;;;;;;;15.52;6.28;;;29.50;99.90;;;;;;5048663;28;20195;-59
2022/05/05 07:05:24;;;;;;;15.02;5.82;;;30.50;99.90;;;;;;5046555;28;20207;-60
2022/05/05 07:07:51;;;;;;;11.70;6.32;;;29.90;99.90;;;;;;5037427;28;20199;-61
2022/05/05 07:13:04;;;;;;;14.30;6.65;;;27.70;99.90;;;;;;5045518;28;20220;-60
2022/05/05 07:15:31;;;;;;;10.38;6.22;;;29.60;99.90;;;;;;5048978;28;20199;-60
2022/05/05 07:17:59;;;;;;;14.05;6.60;;;30.80;99.90;;;;;;5052012;28;20203;-60
2022/05/05 07:20:26;;;;;;;9.57;6.18;;;30.60;99.90;;;;;;5050626;28;20230;-59
2022/05/05 07:22:53;;;;;;;11.95;6.95;;;31.50;99.90;;;;;;5050063;28;20211;-59
2022/05/05 07:25:20;;;;;;;13.43;6.68;;;31.10;99.90;;;;;;5051464;28;20275;-59
2022/05/05 07:27:47;;;;;;;11.60;6.68;;;30.50;99.90;;;;;;5050909;28;20195;-60
2022/05/05 07:30:15;;;;;;;15.07;7.03;;;31.80;99.90;;;;;;5050566;28;20204;-60
2022/05/05 07:32:42;;;;;;;14.30;6.72;;;33.50;99.90;;;;;;5051257;28;20749;-60
2022/05/05 07:35:11;;;;;;;14.98;6.88;;;32.10;99.90;;;;;;5051642;28;20697;-60
2022/05/05 07:37:39;;;;;;;10.57;5.90;;;32.40;99.90;;;;;;5052287;28;20186;-60
2022/05/05 07:40:07;;;;;;;9.18;6.05;;;32.00;99.90;;;;;;5052025;28;20603;-60
2022/05/05 07:42:37;;;;;;;10.75;6.43;;;30.70;99.90;;;;;;5051732;28;20195;-59
2022/05/05 07:45:04;;;;;;;13.85;6.25;;;30.30;99.90;;;;;;5053010;28;20195;-59
2022/05/05 07:47:36;;;;;;;12.27;5.60;;;31.90;99.90;;;;;;5052869;28;20184;-61
2022/05/05 07:50:04;;;;;;;14.82;5.97;;;33.80;99.90;;;;;;5050761;28;20233;-61
2022/05/05 07:52:32;;;;;;;9.98;5.10;;;35.60;99.90;;;;;;5050299;28;20200;-60
2022/05/05 07:54:59;;;;;;;11.32;5.63;;;37.50;99.90;;;;;;5033312;28;20223;-61
2022/05/05 07:57:26;;;;;;;11.77;5.90;;;36.00;99.90;;;;;;5052087;28;20191;-60
2022/05/05 07:59:53;;;;;;;7.90;4.60;;;35.50;99.90;;;;;;5025356;28;20895;-60
2022/05/05 08:02:21;;;;;;;9.55;5.60;;;35.50;99.90;;;;;;5049751;28;20274;-59
2022/05/05 08:04:48;;;;;;;14.00;6.57;;;35.70;99.90;;;;;;5048610;28;20294;-60
2022/05/05 08:07:15;;;;;;;13.00;5.90;;;35.70;99.90;;;;;;5050211;28;20204;-59
2022/05/05 08:09:42;;;;;;;13.80;6.03;;;37.30;99.90;;;;;;5051110;28;20321;-60
2022/05/05 08:12:26;;;;;;;13.18;5.80;;;35.90;99.90;;;;;;5032349;28;20203;-59
2022/05/05 08:14:53;;;;;;;12.63;5.85;;;32.70;99.90;;;;;;5049919;28;20187;-60
2022/05/05 08:17:20;;;;;;;11.30;5.60;;;32.10;99.90;;;;;;5045542;28;20215;-59
2022/05/05 08:19:47;;;;;;;9.65;5.30;;;32.50;99.90;;;;;;5048320;28;20192;-59
2022/05/05 08:22:14;;;;;;;10.30;5.13;;;32.80;99.90;;;;;;5050030;28;20195;-60
2022/05/05 08:30:13;;;;;;;8.50;5.38;;;36.00;99.90;;;;;;5051279;28;20270;-60
2022/05/05 08:32:40;;;;;;;9.95;5.32;;;37.70;99.90;;;;;;5021459;28;20342;-60
2022/05/05 08:35:07;;;;;;;16.35;6.18;;;39.10;99.90;;;;;;5046031;28;20203;-60
2022/05/05 08:37:34;;;;;;;11.90;4.78;;;39.60;99.90;;;;;;5042253;28;20845;-60
2022/05/05 08:40:02;;;;;;;14.75;6.03;;;39.60;99.90;;;;;;5035753;28;20223;-60
2022/05/05 08:42:29;;;;;;;18.45;5.72;;;36.80;99.90;;;;;;5048622;28;20195;-61
2022/05/05 08:44:59;;;;;;;9.68;4.63;;;37.00;99.90;;;;;;5049379;28;20273;-60
2022/05/05 08:47:31;;;;;;;12.45;4.68;;;38.10;99.90;;;;;;5045530;28;20785;-61
2022/05/05 08:50:00;;;;;;;9.07;4.95;;;38.90;99.90;;;;;;5023726;28;20199;-61
2022/05/05 08:52:35;;;;;;;11.98;5.13;;;38.40;99.90;;;;;;5047311;28;20286;-60
2022/05/05 08:55:03;;;;;;;11.27;5.32;;;39.50;99.90;;;;;;5020782;28;20289;-60
2022/05/05 08:57:30;;;;;;;9.52;5.35;;;40.20;99.90;;;;;;5043129;28;20191;-60
2022/05/05 08:59:58;;;;;;;14.77;5.53;;;40.10;99.90;;;;;;5026733;28;20199;-60
2022/05/05 09:02:25;;;;;;;9.80;6.40;;;39.90;99.90;;;;;;5046087;28;20195;-60
2022/05/05 09:04:52;;;;;;;9.95;5.93;;;36.70;99.90;;;;;;5047553;28;20194;-60
2022/05/05 09:07:20;;;;;;;10.75;5.38;;;36.80;99.90;;;;;;5048497;28;20305;-60
2022/05/05 09:09:50;;;;;;;10.00;6.38;;;38.50;99.90;;;;;;5047152;28;20198;-62
2022/05/05 09:12:19;;;;;;;12.55;6.32;;;37.30;99.90;;;;;;5046267;28;20302;-60
2022/05/05 09:14:50;;;;;;;11.35;5.50;;;35.30;99.90;;;;;;5047439;28;20215;-60
2022/05/05 09:17:20;;;;;;;11.32;5.07;;;35.40;99.90;;;;;;5024497;28;20690;-59
2022/05/05 09:19:52;;;;;;;9.93;5.80;;;37.10;99.90;;;;;;5048995;28;20202;-60
2022/05/05 09:22:23;;;;;;;7.70;5.88;;;33.80;99.90;;;;;;5048843;28;20313;-59
2022/05/05 09:24:52;;;;;;;13.27;6.63;;;34.00;99.90;;;;;;5048925;28;20266;-60
2022/05/05 09:27:33;;;;;;;12.82;6.20;;;32.00;99.90;;;;;;5047428;28;20273;-60
2022/05/05 09:30:13;;;;;;;7.78;5.60;;;33.10;99.90;;;;;;5047980;28;20203;-60
2022/05/05 09:32:49;;;;;;;10.70;6.70;;;35.20;99.90;;;;;;5024149;28;20208;-59
2022/05/05 09:35:17;;;;;;;11.30;6.68;;;34.30;99.90;;;;;;5031879;28;20195;-59
2022/05/05 09:37:50;;;;;;;10.95;6.13;;;34.20;99.90;;;;;;5048096;28;20207;-59
2022/05/05 09:40:20;;;;;;;7.88;5.63;;;34.40;99.90;;;;;;5028578;28;20448;-59
2022/05/05 09:42:52;;;;;;;11.05;6.30;;;36.30;99.90;;;;;;5022477;28;20196;-61
2022/05/05 09:45:21;;;;;;;9.93;5.65;;;36.10;99.90;;;;;;5046931;28;20195;-59
2022/05/05 09:47:50;;;;;;;13.32;6.28;;;36.90;99.90;;;;;;5049481;28;20658;-60
2022/05/05 09:50:20;;;;;;;9.88;5.72;;;37.50;99.90;;;;;;5021393;28;20187;-59
2022/05/05 09:58:23;;;;;;;10.32;6.10;;;36.50;99.90;;;;;;5048498;28;20309;-61
2022/05/05 10:01:05;;;;;;;8.27;6.57;;;36.20;99.90;;;;;;5048378;28;20191;-60
2022/05/05 10:04:00;;;;;;;14.73;6.22;;;33.50;99.90;;;;;;5048916;28;20547;-59
2022/05/05 10:06:41;;;;;;;8.55;6.10;;;29.20;99.90;;;;;;5031718;28;20250;-60
2022/05/05 10:09:11;;;;;;;9.75;5.80;;;32.10;99.90;;;;;;5049007;28;20209;-60
2022/05/05 10:11:40;;;;;;;8.48;6.40;;;34.10;99.90;;;;;;5022846;28;20195;-60
2022/05/05 10:14:09;;;;;;;10.55;6.60;;;35.00;99.90;;;;;;5030358;28;20207;-61
2022/05/05 10:16:38;;;;;;;12.68;5.85;;;35.90;99.90;;;;;;5048685;28;20652;-60
2022/05/05 10:19:06;;;;;;;10.70;5.43;;;36.00;99.90;;;;;;5046048;28;20223;-60
2022/05/05 10:21:54;;;;;;;6.85;5.07;;;36.50;99.90;;;;;;5046558;28;20221;-60
2022/05/05 10:24:27;;;;;;;8.30;5.45;;;35.40;99.90;;;;;;5047548;28;20203;-59
2022/05/05 10:26:57;;;;;;;11.45;6.20;;;34.30;99.90;;;;;;5047664;28;20249;-59
2022/05/05 10:29:36;;;;;;;10.35;6.20;;;32.40;99.90;;;;;;5030079;28;20234;-60
2022/05/05 10:32:06;;;;;;;7.93;4.93;;;30.70;99.90;;;;;;5047823;28;20325;-60
2022/05/05 10:34:34;;;;;;;8.90;5.65;;;32.10;99.90;;;;;;5048317;28;20293;-60
2022/05/05 10:37:06;;;;;;;11.27;6.28;;;33.80;99.90;;;;;;5031335;28;20202;-60
2022/05/05 10:39:44;;;;;;;13.25;6.15;;;34.00;99.90;;;;;;5030859;28;20215;-60
2022/05/05 10:42:33;;;;;;;6.47;5.70;;;31.40;99.90;;;;;;5048835;28;20195;-60
2022/05/05 10:45:06;;;;;;;9.57;5.68;;;31.10;99.90;;;;;;5030990;28;20196;-60
2022/05/05 10:47:55;;;;;;;15.02;5.13;;;32.20;99.90;;;;;;5049905;28;20211;-59
2022/05/05 10:50:39;;;;;;;10.32;5.53;;;30.20;99.90;;;;;;5038761;28;20290;-60
2022/05/05 10:53:08;;;;;;;10.07;5.45;;;30.20;99.90;;;;;;5031317;28;20265;-60
2022/05/05 10:55:45;;;;;;;10.10;5.10;;;32.30;99.90;;;;;;5031540;28;20714;-60
2022/05/05 10:59:06;;;;;;;8.48;5.32;;;34.10;99.90;;;;;;5049397;28;20198;-60
2022/05/05 11:01:45;;;;;;;7.13;5.63;;;34.20;99.90;;;;;;5034622;28;20240;-60
2022/05/05 11:04:15;;;;;;;7.90;4.95;;;34.30;99.90;;;;;;5047157;28;20299;-60
2022/05/05 11:06:49;;;;;;;6.10;5.22;;;35.30;99.90;;;;;;5040726;28;20187;-59
2022/05/05 11:09:35;;;;;;;6.55;5.85;;;34.90;99.90;;;;;;5046636;28;20227;-59
2022/05/05 11:12:22;;;;;;;9.85;5.60;;;33.10;99.90;;;;;;5048390;28;20214;-60
2022/05/05 11:23:27;;;;;;;7.05;5.05;;;31.90;99.90;;;;;;5048389;28;20274;-60
2022/05/05 11:25:55;;;;;;;6.82;4.45;;;31.50;99.90;;;;;;5047712;28;20192;-60
2022/05/05 11:28:22;;;;;;;7.57;4.60;;;31.90;99.90;;;;;;5046653;28;20226;-59
2022/05/05 11:30:49;;;;;;;7.53;5.05;;;32.70;99.90;;;;;;5030356;28;20196;-59
2022/05/05 11:33:20;;;;;;;6.88;4.85;;;32.70;99.90;;;;;;5045361;28;20202;-60
2022/05/05 11:36:00;;;;;;;8.15;4.85;;;33.00;99.90;;;;;;5047254;28;20184;-60
2022/05/05 11:38:29;;;;;;;7.45;4.88;;;32.10;99.90;;;;;;5045952;28;20211;-59
2022/05/05 11:41:04;;;;;;;8.15;5.30;;;30.30;99.90;;;;;;5031572;28;20240;-60
2022/05/05 11:46:19;;;;;;;8.00;4.43;;;29.70;99.90;;;;;;5033343;28;20655;-60
2022/05/05 11:48:54;;;;;;;8.70;4.15;;;30.00;99.90;;;;;;5046170;28;20287;-61
2022/05/05 11:51:27;;;;;;;9.10;4.30;;;31.30;99.90;;;;;;5045471;28;20533;-60
2022/05/05 11:54:01;;;;;;;8.85;4.72;;;30.80;99.90;;;;;;5027651;28;20285;-59
2022/05/05 11:56:28;;;;;;;7.80;4.63;;;30.10;99.90;;;;;;5046795;28;20187;-60
2022/05/05 12:02:08;;;;;;;5.60;3.90;;;30.70;99.90;;;;;;5041280;28;20203;-59
2022/05/05 12:04:44;;;;;;;5.47;3.80;;;30.30;99.90;;;;;;5049113;28;20204;-59
2022/05/05 12:07:23;;;;;;;7.43;4.20;;;30.30;99.90;;;;;;5027943;28;20560;-59
2022/05/05 12:09:52;;;;;;;8.68;4.07;;;30.00;99.90;;;;;;5043493;28;20211;-59
2022/05/05 12:12:25;;;;;;;7.60;4.35;;;28.00;99.90;;;;;;5031095;28;20218;-59
2022/05/05 12:14:56;;;;;;;5.50;4.03;;;26.30;99.90;;;;;;5026402;28;20701;-60
2022/05/05 12:17:31;;;;;;;6.95;3.70;;;25.60;99.90;;;;;;5010288;28;20203;-60
2022/05/05 12:20:03;;;;;;;8.98;4.55;;;27.30;99.90;;;;;;5030781;28;20859;-60
2022/05/05 12:22:38;;;;;;;5.10;3.83;;;28.20;99.90;;;;;;5012334;28;20428;-60
2022/05/05 12:25:14;;;;;;;5.75;3.22;;;28.20;99.90;;;;;;5046148;28;20221;-60
2022/05/05 12:27:47;;;;;;;3.85;2.95;;;28.20;99.90;;;;;;5043395;28;20203;-60
2022/05/05 12:30:35;;;;;;;4.68;2.75;;;26.90;99.90;;;;;;5026793;28;20325;-59
2022/05/05 12:33:07;;;;;;;4.65;3.35;;;27.40;99.90;;;;;;5045694;28;20207;-60
2022/05/05 12:35:41;;;;;;;8.40;3.83;;;28.00;99.90;;;;;;5027215;28;20287;-60
2022/05/05 12:38:15;;;;;;;7.65;3.67;;;28.50;99.90;;;;;;5027978;28;20736;-59
2022/05/05 12:40:44;;;;;;;6.22;4.30;;;27.90;99.90;;;;;;5044384;28;20187;-60
2022/05/05 12:43:18;;;;;;;7.15;4.95;;;27.10;99.90;;;;;;5043895;28;20211;-60
2022/05/05 12:45:47;;;;;;;8.32;3.90;;;26.10;99.90;;;;;;5026841;28;20233;-60
2022/05/05 12:48:14;;;;;;;5.40;4.00;;;26.50;99.90;;;;;;5045856;28;20187;-60
2022/05/05 12:50:46;;;;;;;5.28;4.35;;;26.40;99.90;;;;;;5043894;28;20223;-60
2022/05/05 13:01:52;;;;;;;8.93;4.07;;;26.00;99.90;;;;;;5012626;28;20265;-60
2022/05/05 13:04:20;;;;;;;6.88;4.18;;;25.80;99.90;;;;;;5043742;28;20218;-60
2022/05/05 13:06:49;;;;;;;5.32;3.67;;;25.50;99.90;;;;;;5050890;28;20203;-60
2022/05/05 13:09:16;;;;;;;5.32;3.83;;;25.20;99.90;;;;;;5030513;28;20199;-59
2022/05/05 13:11:53;;;;;;;4.38;3.15;;;25.20;99.90;;;;;;5048483;28;20191;-60
2022/05/05 13:14:21;;;;;;;5.35;2.80;;;25.30;99.90;;;;;;5047566;28;20199;-60
2022/05/05 13:16:49;;;;;;;5.65;3.10;;;25.80;99.90;;;;;;5047082;28;20198;-59
2022/05/05 13:19:16;;;;;;;5.75;3.83;;;25.90;99.90;;;;;;5045595;28;20295;-59
2022/05/05 13:21:45;;;;;;;8.63;3.50;;;26.00;99.90;;;;;;5029850;28;20253;-58
2022/05/05 13:24:12;;;;;;;5.30;3.53;;;25.80;99.90;;;;;;5027562;28;20701;-59
2022/05/05 13:26:41;;;;;;;6.70;2.88;;;26.00;99.90;;;;;;5044302;28;20253;-59
2022/05/05 13:29:11;;;;;;;6.88;2.67;;;26.00;99.90;;;;;;5040729;28;20257;-59
2022/05/05 13:31:39;;;;;;;5.65;2.83;;;26.20;99.90;;;;;;5045904;28;20586;-59
2022/05/05 13:34:06;;;;;;;4.53;2.70;;;25.80;99.90;;;;;;5040574;28;20199;-60
2022/05/05 13:36:36;;;;;;;4.38;2.30;;;25.70;99.90;;;;;;5043779;28;20192;-59
2022/05/05 13:39:09;;;;;;;5.95;3.30;;;25.50;99.90;;;;;;5010120;28;20681;-59
2022/05/05 13:41:36;;;;;;;6.80;3.38;;;25.30;99.90;;;;;;5045459;28;20626;-60
2022/05/05 13:44:06;;;;;;;5.63;2.63;;;25.40;99.90;;;;;;5044049;28;20223;-59
2022/05/05 13:46:36;;;;;;;3.88;2.42;;;24.30;99.90;;;;;;5047988;28;20188;-60
2022/05/05 13:49:07;;;;;;;7.95;2.50;;;23.90;99.90;;;;;;5031211;28;20622;-61
2022/05/05 13:51:37;;;;;;;5.85;2.97;;;23.70;99.90;;;;;;5047864;28;20192;-59
2022/05/05 13:54:24;;;;;;;4.68;2.72;;;24.10;99.90;;;;;;5046409;28;20224;-59
2022/05/05 13:56:52;;;;;;;3.90;2.60;;;24.10;99.90;;;;;;5044001;28;20199;-60
2022/05/05 13:59:20;;;;;;;5.47;3.00;;;24.50;99.90;;;;;;5043836;28;20812;-59
2022/05/05 14:01:47;;;;;;;4.70;2.83;;;24.70;99.90;;;;;;5046959;28;20192;-59
2022/05/05 14:04:14;;;;;;;5.93;2.72;;;25.00;99.90;;;;;;5019897;28;20231;-60
2022/05/05 14:06:41;;;;;;;7.13;2.60;;;24.70;99.90;;;;;;5046478;28;20203;-59
2022/05/05 14:12:13;;;;;;;6.35;3.00;;;24.90;99.90;;;;;;5034485;28;20183;-59
2022/05/05 14:14:43;;;;;;;5.53;3.00;;;24.60;99.90;;;;;;5031983;28;20211;-59
2022/05/05 14:17:11;;;;;;;4.75;2.90;;;23.90;99.90;;;;;;5013961;28;20271;-59
2022/05/05 14:19:40;;;;;;;4.80;2.90;;;23.90;99.90;;;;;;5045520;28;20279;-59
2022/05/05 14:22:07;;;;;;;4.10;2.60;;;23.50;99.90;;;;;;5048290;28;20203;-59
2022/05/05 14:24:34;;;;;;;4.85;2.95;;;23.50;99.90;;;;;;5044416;28;20682;-59
2022/05/05 14:27:03;;;;;;;5.53;2.88;;;23.40;99.90;;;;;;5014460;28;20199;-60
2022/05/05 14:29:30;;;;;;;7.47;3.13;;;23.80;99.90;;;;;;5046867;28;20248;-59
2022/05/05 14:31:57;;;;;;;4.70;2.78;;;23.80;99.90;;;;;;5047760;28;20199;-59
2022/05/05 14:34:24;;;;;;;8.15;2.97;;;23.80;99.90;;;;;;5029718;28;20234;-60
2022/05/05 14:36:51;;;;;;;7.55;3.25;;;23.90;99.90;;;;;;5046814;28;20241;-60
2022/05/05 14:39:18;;;;;;;6.10;3.67;;;24.10;99.90;;;;;;5048531;28;20726;-60
2022/05/05 14:41:45;;;;;;;7.00;3.38;;;24.10;99.90;;;;;;5048881;28;20261;-59
2022/05/05 14:44:12;;;;;;;6.43;3.72;;;24.10;99.90;;;;;;5026405;28;20760;-59
2022/05/05 14:46:40;;;;;;;6.32;5.72;;;24.00;99.90;;;;;;5048340;28;20191;-59
2022/05/05 14:49:07;;;;;;;7.93;4.70;;;24.20;99.90;;;;;;5045854;28;20191;-60
2022/05/05 14:51:34;;;;;;;6.90;3.83;;;24.10;99.90;;;;;;5030107;28;20195;-59
2022/05/05 14:54:04;;;;;;;22.05;16.05;;;23.70;99.90;;;;;;5048453;28;20521;-59
2022/05/05 14:56:31;;;;;;;16.13;12.02;;;23.60;99.90;;;;;;5046422;28;20212;-59
2022/05/05 14:58:58;;;;;;;12.52;8.82;;;23.80;99.90;;;;;;5045699;28;20230;-59
2022/05/05 15:01:25;;;;;;;12.85;8.75;;;23.80;99.90;;;;;;5030525;28;20211;-59
2022/05/05 15:03:52;;;;;;;15.20;7.45;;;23.90;99.90;;;;;;5047865;28;20208;-60
2022/05/05 15:06:20;;;;;;;6.40;4.88;;;23.80;99.90;;;;;;5046111;28;20294;-59
2022/05/05 15:08:47;;;;;;;7.07;3.50;;;24.10;99.90;;;;;;5025213;28;20275;-59
2022/05/05 15:11:14;;;;;;;3.60;2.63;;;23.90;99.90;;;;;;5045436;28;20192;-59
2022/05/05 15:13:41;;;;;;;4.47;2.70;;;23.80;99.90;;;;;;5047475;28;20218;-59
2022/05/05 15:16:09;;;;;;;4.15;3.25;;;23.70;99.90;;;;;;5029783;28;20226;-60
2022/05/05 15:18:36;;;;;;;5.97;3.50;;;23.90;99.90;;;;;;5031145;28;20425;-59
2022/05/05 15:21:03;;;;;;;8.20;3.22;;;24.20;99.90;;;;;;5049081;28;20714;-60
2022/05/05 15:23:33;;;;;;;8.77;2.85;;;24.20;99.90;;;;;;5048101;28;20230;-60
2022/05/05 15:26:03;;;;;;;6.20;3.58;;;24.20;99.90;;;;;;5045335;28;20195;-60
2022/05/05 15:28:31;;;;;;;4.70;3.20;;;23.60;99.90;;;;;;5030296;28;20199;-59
2022/05/05 15:31:03;;;;;;;8.02;3.17;;;23.80;99.90;;;;;;5029921;28;20297;-60
2022/05/05 15:33:30;;;;;;;9.70;4.28;;;24.00;99.90;;;;;;5046307;28;20582;-58
2022/05/05 15:35:57;;;;;;;9.85;3.42;;;24.00;99.90;;;;;;5046741;28;20599;-59
2022/05/05 15:38:25;;;;;;;6.57;3.55;;;24.10;99.90;;;;;;5031101;28;20776;-60
2022/05/05 15:40:52;;;;;;;5.78;3.13;;;24.10;99.90;;;;;;5047549;28;20187;-59
2022/05/05 15:43:19;;;;;;;4.63;2.83;;;24.30;99.90;;;;;;5039678;28;20330;-59
2022/05/05 15:45:48;;;;;;;2.97;2.28;;;24.10;99.90;;;;;;5049940;28;20192;-59
2022/05/05 15:48:16;;;;;;;5.10;2.30;;;23.80;99.90;;;;;;5047225;28;20199;-59
2022/05/05 15:50:43;;;;;;;5.93;2.55;;;23.40;99.90;;;;;;5030887;28;20412;-59
2022/05/05 15:53:11;;;;;;;5.38;2.30;;;23.30;99.90;;;;;;5041384;28;20316;-59
2022/05/05 15:55:38;;;;;;;4.60;2.42;;;23.40;99.90;;;;;;5036086;28;21549;-59
2022/05/05 15:58:05;;;;;;;6.20;2.30;;;23.70;99.90;;;;;;5022239;28;20276;-59
2022/05/05 16:00:32;;;;;;;8.30;2.80;;;23.50;99.90;;;;;;5043986;28;20215;-59
2022/05/05 16:02:59;;;;;;;5.55;3.20;;;23.10;99.90;;;;;;5041993;28;20324;-59
2022/05/05 16:05:27;;;;;;;8.32;3.50;;;23.30;99.90;;;;;;5049775;28;20283;-60
2022/05/05 16:07:55;;;;;;;7.03;4.35;;;23.00;99.90;;;;;;5048545;28;20195;-59
2022/05/05 16:10:25;;;;;;;7.25;3.67;;;23.00;99.90;;;;;;5045299;28;20199;-59
2022/05/05 16:12:53;;;;;;;6.25;3.50;;;23.10;99.90;;;;;;5046735;28;20253;-60
2022/05/05 16:15:20;;;;;;;9.57;3.80;;;22.90;99.90;;;;;;5045671;28;20262;-60
2022/05/05 16:17:48;;;;;;;5.47;2.95;;;22.90;99.90;;;;;;5043116;28;20910;-59
2022/05/05 16:20:17;;;;;;;8.25;3.83;;;22.70;99.90;;;;;;5046439;28;20283;-60
2022/05/05 16:22:45;;;;;;;4.13;2.90;;;22.40;99.90;;;;;;5048708;28;20183;-58
2022/05/05 16:30:46;;;;;;;6.47;3.10;;;22.10;99.90;;;;;;5049142;28;20838;-59
2022/05/05 16:33:14;;;;;;;6.10;3.03;;;22.10;99.90;;;;;;5049183;28;20266;-59
2022/05/05 16:35:41;;;;;;;6.35;2.75;;;21.90;99.90;;;;;;5046111;28;20285;-60
2022/05/05 16:38:09;;;;;;;6.95;2.50;;;21.60;99.90;;;;;;5032673;28;20211;-59
2022/05/05 16:40:38;;;;;;;3.72;2.60;;;21.60;99.90;;;;;;5049274;28;20203;-59
2022/05/05 16:43:05;;;;;;;4.82;2.70;;;21.50;99.90;;;;;;5047971;28;20200;-59
2022/05/05 16:45:32;;;;;;;6.13;2.70;;;21.40;99.90;;;;;;5028967;28;20207;-59
2022/05/05 16:48:00;;;;;;;5.18;2.35;;;21.60;99.90;;;;;;5047934;28;20203;-60
2022/05/05 16:50:27;;;;;;;5.13;2.33;;;21.70;99.90;;;;;;5050486;28;20203;-59
2022/05/05 16:52:55;;;;;;;5.80;2.20;;;22.10;99.90;;;;;;5028827;28;20303;-59
2022/05/05 16:55:22;;;;;;;9.90;2.20;;;22.40;99.90;;;;;;5045325;28;20273;-59
2022/05/05 16:57:52;;;;;;;5.05;2.03;;;21.90;99.90;;;;;;5046795;28;20358;-59
2022/05/05 17:00:24;;;;;;;3.03;2.30;;;21.90;99.90;;;;;;5048680;28;20211;-59
2022/05/05 17:02:54;;;;;;;6.15;2.35;;;21.80;99.90;;;;;;5027345;28;20286;-59
2022/05/05 17:05:22;;;;;;;5.70;2.28;;;21.40;99.90;;;;;;5048254;28;20238;-59
2022/05/05 17:07:51;;;;;;;4.18;2.38;;;21.10;99.90;;;;;;5047309;28;20211;-60
2022/05/05 17:10:22;;;;;;;6.78;1.90;;;21.50;99.90;;;;;;5047220;28;20635;-59
2022/05/05 17:12:50;;;;;;;4.43;2.10;;;21.70;99.90;;;;;;5022301;28;20188;-59
2022/05/05 17:15:18;;;;;;;5.13;1.88;;;21.70;99.90;;;;;;5047605;28;20273;-60
2022/05/05 17:17:49;;;;;;;6.18;2.33;;;21.60;99.90;;;;;;5012694;28;20211;-60
2022/05/05 17:20:18;;;;;;;4.80;2.22;;;21.40;99.90;;;;;;5025964;28;20191;-59
2022/05/05 17:22:49;;;;;;;5.68;3.10;;;21.10;99.90;;;;;;5031582;28;20215;-55
2022/05/05 17:25:16;;;;;;;7.65;2.53;;;20.90;99.90;;;;;;5048909;28;20202;-57
2022/05/05 17:27:44;;;;;;;4.93;2.60;;;20.80;99.90;;;;;;5033297;28;20210;-57
2022/05/05 17:30:11;;;;;;;4.82;2.40;;;20.70;99.90;;;;;;5050461;28;20195;-57
2022/05/05 17:32:38;;;;;;;5.70;2.40;;;20.80;99.90;;;;;;5043779;28;20211;-57
2022/05/05 17:35:06;;;;;;;6.57;2.53;;;20.70;99.90;;;;;;5037819;28;20242;-57
2022/05/05 17:37:33;;;;;;;4.05;2.53;;;20.60;99.90;;;;;;5048478;28;20207;-57
2022/05/05 17:40:00;;;;;;;4.28;2.60;;;20.50;99.90;;;;;;5030672;28;20231;-56
2022/05/05 17:42:29;;;;;;;6.60;2.42;;;20.40;99.90;;;;;;5045191;28;20491;-57
2022/05/05 17:50:36;;;;;;;6.65;2.50;;;20.00;99.90;;;;;;5054326;28;20188;-57
2022/05/05 17:53:07;;;;;;;4.43;2.40;;;20.00;99.90;;;;;;5051813;28;20227;-57
2022/05/05 17:55:35;;;;;;;10.82;2.85;;;19.80;99.90;;;;;;5049792;28;20274;-57
2022/05/05 17:58:03;;;;;;;11.15;3.50;;;19.70;99.90;;;;;;5014071;28;20230;-56
2022/05/05 18:00:33;;;;;;;7.38;3.55;;;19.70;99.90;;;;;;5030001;28;20210;-57
2022/05/05 18:03:01;;;;;;;8.43;2.90;;;19.70;99.90;;;;;;5049441;28;20393;-56